createdAt,value
2022-11-25T00:03:14.985Z,21.92
2022-11-25T00:05:42.831Z,21.27
2022-11-25T00:08:10.325Z,20.70
2022-11-25T00:10:38.013Z,21.58
2022-11-25T00:13:05.443Z,19.63
2022-11-25T00:15:33.885Z,21.42
2022-11-25T00:18:01.365Z,19.50
2022-11-25T00:20:29.105Z,19.70
2022-11-25T00:22:56.473Z,21.08
2022-11-25T00:25:24.219Z,20.40
2022-11-25T00:27:52.418Z,20.30
2022-11-25T00:30:20.163Z,22.42
2022-11-25T00:32:47.461Z,22.40
2022-11-25T00:35:15.127Z,21.90
2022-11-25T00:37:42.471Z,21.75
2022-11-25T00:40:10.503Z,22.05
2022-11-25T00:42:37.864Z,22.73
2022-11-25T00:45:05.837Z,23.63
2022-11-25T00:47:33.191Z,22.52
2022-11-25T00:50:00.890Z,23.65
2022-11-25T00:52:28.207Z,22.25
2022-11-25T00:54:55.879Z,23.75
2022-11-25T00:57:23.652Z,22.13
2022-11-25T00:59:51.308Z,23.00
2022-11-25T01:02:18.878Z,19.38
2022-11-25T01:04:47.037Z,21.20
2022-11-25T01:07:14.867Z,20.55
2022-11-25T01:09:42.591Z,19.80
2022-11-25T01:12:10.025Z,21.00
2022-11-25T01:14:37.904Z,22.63
2022-11-25T01:17:05.377Z,21.52
2022-11-25T01:19:33.141Z,23.08
2022-11-25T01:22:00.562Z,24.48
2022-11-25T01:24:28.157Z,23.50
2022-11-25T01:26:55.595Z,22.65
2022-11-25T01:29:23.476Z,20.42
2022-11-25T01:31:51.064Z,21.98
2022-11-25T01:34:19.974Z,21.98
2022-11-25T01:37:05.606Z,23.10
2022-11-25T01:39:33.522Z,26.92
2022-11-25T01:42:01.343Z,27.38
2022-11-25T01:44:29.603Z,24.92
2022-11-25T01:46:57.316Z,24.67
2022-11-25T01:49:40.632Z,24.13
2022-11-25T01:52:27.503Z,24.63
2022-11-25T01:55:07.007Z,25.23
2022-11-25T01:57:40.898Z,24.70
2022-11-25T02:00:09.134Z,24.48
2022-11-25T02:02:36.943Z,24.40
2022-11-25T02:05:07.834Z,25.02
2022-11-25T02:07:36.651Z,21.60
2022-11-25T02:10:06.998Z,24.10
2022-11-25T02:12:35.547Z,22.10
2022-11-25T02:15:04.564Z,22.65
2022-11-25T02:17:32.253Z,22.77
2022-11-25T02:20:01.945Z,24.88
2022-11-25T02:22:35.291Z,28.02
2022-11-25T02:25:28.976Z,25.30
2022-11-25T02:28:05.618Z,26.10
2022-11-25T02:30:33.757Z,27.70
2022-11-25T02:33:01.172Z,27.17
2022-11-25T02:35:31.297Z,26.70
2022-11-25T02:38:08.949Z,28.42
2022-11-25T02:40:45.898Z,27.38
2022-11-25T02:43:13.260Z,27.83
2022-11-25T02:45:56.432Z,31.30
2022-11-25T02:48:40.062Z,31.73
2022-11-25T02:51:13.821Z,30.45
2022-11-25T02:53:41.182Z,29.85
2022-11-25T02:56:09.522Z,30.45
2022-11-25T02:58:36.933Z,30.30
2022-11-25T03:01:04.835Z,31.15
2022-11-25T03:03:32.300Z,30.90
2022-11-25T03:05:59.908Z,29.63
2022-11-25T03:08:27.370Z,28.15
2022-11-25T03:10:55.434Z,29.48
2022-11-25T03:20:14.907Z,29.02
2022-11-25T03:29:46.813Z,29.25
2022-11-25T03:32:14.510Z,31.25
2022-11-25T03:34:43.314Z,30.20
2022-11-25T03:37:11.073Z,30.00
2022-11-25T03:39:38.418Z,29.80
2022-11-25T03:42:08.577Z,30.27
2022-11-25T03:44:36.173Z,29.00
2022-11-25T03:47:04.451Z,30.42
2022-11-25T03:49:31.769Z,30.33
2022-11-25T03:51:59.469Z,33.10
2022-11-25T03:54:26.872Z,31.40
2022-11-25T03:56:54.490Z,29.17
2022-11-25T03:59:21.859Z,30.38
2022-11-25T04:01:49.567Z,32.05
2022-11-25T04:04:17.180Z,33.45
2022-11-25T04:06:44.805Z,30.75
2022-11-25T04:09:12.168Z,32.72
2022-11-25T04:11:39.828Z,33.20
2022-11-25T04:14:07.121Z,32.30
2022-11-25T04:16:35.021Z,33.03
2022-11-25T04:19:02.374Z,33.42
2022-11-25T04:21:30.941Z,31.65
2022-11-25T04:23:58.300Z,31.58
2022-11-25T04:26:25.961Z,32.88
2022-11-25T04:28:53.318Z,32.47
2022-11-25T04:31:21.017Z,32.05
2022-11-25T04:33:52.445Z,31.92
2022-11-25T04:36:20.477Z,32.60
2022-11-25T04:38:47.920Z,33.35
2022-11-25T04:41:15.583Z,31.60
2022-11-25T04:43:42.981Z,32.28
2022-11-25T04:46:14.938Z,33.53
2022-11-25T04:51:10.449Z,32.72
2022-11-25T04:53:37.786Z,32.33
2022-11-25T04:56:05.586Z,35.72
2022-11-25T04:58:32.966Z,30.92
2022-11-25T05:01:00.681Z,33.85
2022-11-25T05:03:28.089Z,35.10
2022-11-25T05:09:14.495Z,35.95
2022-11-25T05:11:42.261Z,37.20
2022-11-25T05:14:09.628Z,34.17
2022-11-25T05:16:37.379Z,32.97
2022-11-25T05:19:04.798Z,30.00
2022-11-25T05:21:32.914Z,34.55
2022-11-25T05:24:00.219Z,35.83
2022-11-25T05:26:27.910Z,36.20
2022-11-25T05:28:55.196Z,35.85
2022-11-25T05:31:22.882Z,35.70
2022-11-25T05:33:50.431Z,34.22
2022-11-25T05:36:18.038Z,35.00
2022-11-25T05:38:45.506Z,33.05
2022-11-25T05:41:13.185Z,33.83
2022-11-25T05:43:40.648Z,32.30
2022-11-25T05:46:08.307Z,34.85
2022-11-25T05:48:35.892Z,33.30
2022-11-25T05:51:04.164Z,33.55
2022-11-25T05:53:31.723Z,33.13
2022-11-25T05:56:00.410Z,29.88
2022-11-25T05:58:28.769Z,29.67
2022-11-25T06:00:56.435Z,32.15
2022-11-25T06:03:24.656Z,38.63
2022-11-25T06:05:52.665Z,36.50
2022-11-25T06:08:20.105Z,30.83
2022-11-25T06:10:48.004Z,31.33
2022-11-25T06:13:15.504Z,30.83
2022-11-25T06:15:44.121Z,33.47
2022-11-25T06:18:12.228Z,29.98
2022-11-25T06:20:39.914Z,30.50
2022-11-25T06:23:07.299Z,30.90
2022-11-25T06:25:34.959Z,31.15
2022-11-25T06:28:12.908Z,32.28
2022-11-25T06:30:41.087Z,29.42
2022-11-25T06:33:08.711Z,30.35
2022-11-25T06:35:36.528Z,30.38
2022-11-25T06:38:03.979Z,30.08
2022-11-25T06:40:31.645Z,32.53
2022-11-25T06:42:58.964Z,29.92
2022-11-25T06:45:26.584Z,30.02
2022-11-25T06:47:53.911Z,30.20
2022-11-25T06:50:21.575Z,29.10
2022-11-25T06:52:49.039Z,30.38
2022-11-25T06:55:16.777Z,30.85
2022-11-25T06:57:44.183Z,30.98
2022-11-25T07:00:19.113Z,31.77
2022-11-25T07:06:19.454Z,31.00
2022-11-25T07:08:47.690Z,33.65
2022-11-25T07:11:20.320Z,35.15
2022-11-25T07:13:48.763Z,33.53
2022-11-25T07:16:16.271Z,33.05
2022-11-25T07:18:43.997Z,32.95
2022-11-25T07:21:15.901Z,31.40
2022-11-25T07:23:44.189Z,32.53
2022-11-25T07:26:13.096Z,34.88
2022-11-25T07:28:41.141Z,33.40
2022-11-25T07:31:23.230Z,31.45
2022-11-25T07:33:53.057Z,33.10
2022-11-25T07:36:20.612Z,33.25
2022-11-25T07:38:48.612Z,30.52
2022-11-25T07:41:17.733Z,31.73
2022-11-25T07:43:46.468Z,31.17
2022-11-25T07:46:13.806Z,29.27
2022-11-25T07:48:41.857Z,32.28
2022-11-25T07:51:24.557Z,31.38
2022-11-25T07:53:53.299Z,30.65
2022-11-25T07:56:21.095Z,29.75
2022-11-25T07:58:48.936Z,31.45
2022-11-25T08:01:19.703Z,34.95
2022-11-25T08:03:48.402Z,35.63
2022-11-25T08:06:17.731Z,36.25
2022-11-25T08:08:45.570Z,37.63
2022-11-25T08:11:14.848Z,36.28
2022-11-25T08:13:43.007Z,33.88
2022-11-25T08:16:11.850Z,37.47
2022-11-25T08:18:39.935Z,38.28
2022-11-25T08:21:09.130Z,38.40
2022-11-25T08:23:37.517Z,37.25
2022-11-25T08:26:06.085Z,33.25
2022-11-25T08:28:33.952Z,33.65
2022-11-25T08:31:02.420Z,33.63
2022-11-25T08:33:30.135Z,34.28
2022-11-25T08:35:57.542Z,33.30
2022-11-25T08:38:25.357Z,32.10
2022-11-25T08:40:52.768Z,33.13
2022-11-25T08:43:25.005Z,35.72
2022-11-25T08:45:57.571Z,30.35
2022-11-25T08:48:25.226Z,32.85
2022-11-25T08:50:53.573Z,30.27
2022-11-25T08:53:21.885Z,27.95
2022-11-25T08:55:49.329Z,29.02
2022-11-25T08:58:19.674Z,27.67
2022-11-25T09:00:47.068Z,28.42
2022-11-25T09:03:14.853Z,27.70
2022-11-25T09:09:14.662Z,26.63
2022-11-25T09:11:42.488Z,26.23
2022-11-25T09:14:09.991Z,25.15
2022-11-25T09:16:53.019Z,28.42
2022-11-25T09:19:20.580Z,25.23
2022-11-25T09:21:48.395Z,31.20
2022-11-25T09:24:15.785Z,29.23
2022-11-25T09:26:43.512Z,32.78
2022-11-25T09:29:12.537Z,30.75
2022-11-25T09:31:40.423Z,31.75
2022-11-25T09:34:07.909Z,27.55
2022-11-25T09:36:35.601Z,24.08
2022-11-25T09:39:02.975Z,23.10
2022-11-25T09:41:36.869Z,26.20
2022-11-25T09:44:17.250Z,25.15
2022-11-25T09:46:52.752Z,23.00
2022-11-25T09:49:36.837Z,22.17
2022-11-25T09:52:16.766Z,21.13
2022-11-25T09:54:45.587Z,23.88
2022-11-25T09:57:22.039Z,22.20
2022-11-25T09:59:52.243Z,20.63
2022-11-25T10:02:26.512Z,18.98
2022-11-25T10:05:07.155Z,18.20
2022-11-25T10:07:38.132Z,19.27
2022-11-25T10:10:06.983Z,18.27
2022-11-25T10:12:36.381Z,16.35
2022-11-25T10:15:06.299Z,17.73
2022-11-25T10:17:38.216Z,17.67
2022-11-25T10:20:12.487Z,18.00
2022-11-25T10:22:47.930Z,23.55
2022-11-25T10:25:18.304Z,24.85
2022-11-25T10:27:49.829Z,21.40
2022-11-25T10:30:24.630Z,25.70
2022-11-25T10:33:03.396Z,21.00
2022-11-25T10:35:33.919Z,18.42
2022-11-25T10:41:17.327Z,15.88
2022-11-25T10:43:46.575Z,15.93
2022-11-25T10:46:37.911Z,14.75
2022-11-25T10:49:25.808Z,15.68
2022-11-25T10:51:53.144Z,16.23
2022-11-25T10:54:39.211Z,16.38
2022-11-25T10:57:17.680Z,13.88
2022-11-25T10:59:54.694Z,13.05
2022-11-25T11:02:24.940Z,12.50
2022-11-25T11:05:01.577Z,13.65
2022-11-25T11:07:33.958Z,13.15
2022-11-25T11:10:20.228Z,14.13
2022-11-25T11:12:51.687Z,14.60
2022-11-25T11:15:21.813Z,18.33
2022-11-25T11:17:49.318Z,15.93
2022-11-25T11:20:21.318Z,15.30
2022-11-25T11:22:50.317Z,15.65
2022-11-25T11:25:20.709Z,15.25
2022-11-25T11:27:48.176Z,15.23
2022-11-25T11:30:17.204Z,13.48
2022-11-25T11:32:45.567Z,13.68
2022-11-25T11:35:18.961Z,13.93
2022-11-25T11:41:29.686Z,11.25
2022-11-25T11:44:14.830Z,11.30
2022-11-25T11:47:00.720Z,11.60
2022-11-25T11:49:31.260Z,11.35
2022-11-25T11:52:05.192Z,11.18
2022-11-25T11:54:38.140Z,11.43
2022-11-25T11:57:11.445Z,10.05
2022-11-25T11:59:53.111Z,10.65
2022-11-25T12:02:20.585Z,11.23
2022-11-25T12:08:35.317Z,12.45
2022-11-25T12:11:04.898Z,12.30
2022-11-25T12:13:50.374Z,10.73
2022-11-25T12:16:20.798Z,12.93
2022-11-25T12:18:57.187Z,11.75
2022-11-25T12:21:30.772Z,11.63
2022-11-25T12:23:58.317Z,12.45
2022-11-25T12:26:39.368Z,12.25
2022-11-25T12:29:09.270Z,10.93
2022-11-25T12:31:44.226Z,10.63
2022-11-25T12:38:02.123Z,10.35
2022-11-25T12:40:33.359Z,11.32
2022-11-25T12:43:19.321Z,11.60
2022-11-25T12:45:50.698Z,12.10
2022-11-25T12:48:21.546Z,12.40
2022-11-25T12:50:49.369Z,11.48
2022-11-25T12:53:23.890Z,12.18
2022-11-25T12:55:53.652Z,13.27
2022-11-25T12:58:30.404Z,12.48
2022-11-25T13:01:08.546Z,13.80
2022-11-25T13:03:54.571Z,15.65
2022-11-25T13:06:40.698Z,14.10
2022-11-25T13:09:22.997Z,11.43
2022-11-25T13:12:09.694Z,11.50
2022-11-25T13:14:56.200Z,12.05
2022-11-25T13:17:25.050Z,11.80
2022-11-25T13:20:11.400Z,12.60
2022-11-25T13:22:39.257Z,11.82
2022-11-25T13:25:21.460Z,11.95
2022-11-25T13:30:34.342Z,12.52
2022-11-25T13:33:10.929Z,13.05
2022-11-25T13:35:48.184Z,13.00
2022-11-25T13:38:30.761Z,13.55
2022-11-25T13:41:21.162Z,13.38
2022-11-25T13:44:05.449Z,12.93
2022-11-25T13:46:40.088Z,13.98
2022-11-25T13:49:21.530Z,14.15
2022-11-25T13:51:50.263Z,13.60
2022-11-25T13:54:24.889Z,12.07
2022-11-25T13:56:59.668Z,12.02
2022-11-25T13:59:38.118Z,13.55
2022-11-25T14:02:24.438Z,12.82
2022-11-25T14:04:57.691Z,14.55
2022-11-25T14:07:25.154Z,13.85
2022-11-25T14:10:07.857Z,15.43
2022-11-25T14:15:14.571Z,11.13
2022-11-25T14:17:41.872Z,11.68
2022-11-25T14:20:16.723Z,11.80
2022-11-25T14:23:02.695Z,11.98
2022-11-25T14:25:44.308Z,11.57
2022-11-25T14:28:20.932Z,10.95
2022-11-25T14:30:53.570Z,12.85
2022-11-25T14:33:25.570Z,15.15
2022-11-25T14:35:55.441Z,12.93
2022-11-25T14:38:25.411Z,16.30
2022-11-25T14:40:55.189Z,18.73
2022-11-25T14:43:25.988Z,17.67
2022-11-25T14:46:12.204Z,18.67
2022-11-25T14:48:39.603Z,16.30
2022-11-25T14:51:09.279Z,16.77
2022-11-25T14:53:47.320Z,16.80
2022-11-25T14:56:17.091Z,16.77
2022-11-25T14:58:48.216Z,34.80
2022-11-25T15:01:18.941Z,36.53
2022-11-25T15:03:47.280Z,30.92
2022-11-25T15:06:15.505Z,23.98
2022-11-25T15:08:44.314Z,19.13
2022-11-25T15:14:55.831Z,15.88
2022-11-25T15:17:31.832Z,15.90
2022-11-25T15:20:01.337Z,14.38
2022-11-25T15:22:29.273Z,15.05
2022-11-25T15:25:06.648Z,14.77
2022-11-25T15:27:34.318Z,15.15
2022-11-25T15:30:01.679Z,16.00
2022-11-25T15:32:31.506Z,16.60
2022-11-25T15:35:00.216Z,28.30
2022-11-25T15:37:28.234Z,25.30
2022-11-25T15:40:14.419Z,57.95
2022-11-25T15:42:42.292Z,25.15
2022-11-25T15:45:11.415Z,23.60
2022-11-25T15:47:39.254Z,21.23
2022-11-25T15:50:16.666Z,23.98
2022-11-25T15:52:48.669Z,54.40
2022-11-25T15:58:30.034Z,20.10
2022-11-25T16:01:03.276Z,22.80
2022-11-25T16:03:34.382Z,26.33
2022-11-25T16:06:02.049Z,27.70
2022-11-25T16:08:36.877Z,21.35
2022-11-25T16:11:10.105Z,23.88
2022-11-25T16:13:38.658Z,20.58
2022-11-25T16:16:14.988Z,26.08
2022-11-25T16:19:01.702Z,26.85
2022-11-25T16:21:29.969Z,28.65
2022-11-25T16:24:06.457Z,25.50
2022-11-25T16:26:38.666Z,25.88
2022-11-25T16:29:15.701Z,30.00
2022-11-25T16:31:43.126Z,29.58
2022-11-25T16:34:18.221Z,39.17
2022-11-25T16:36:45.746Z,37.20
2022-11-25T16:39:13.612Z,36.83
2022-11-25T16:41:41.529Z,33.08
2022-11-25T16:44:20.203Z,33.28
2022-11-25T16:46:47.559Z,28.75
2022-11-25T16:49:16.706Z,25.67
2022-11-25T16:51:44.523Z,22.95
2022-11-25T16:54:12.144Z,21.50
2022-11-25T16:56:40.560Z,22.75
2022-11-25T16:59:18.265Z,22.80
2022-11-25T17:01:59.136Z,22.65
2022-11-25T17:04:27.102Z,23.02
2022-11-25T17:07:30.569Z,22.85
2022-11-25T17:09:45.162Z,23.55
2022-11-25T17:12:17.953Z,24.65
2022-11-25T17:14:46.818Z,27.15
2022-11-25T17:17:23.948Z,27.08
2022-11-25T17:19:53.016Z,27.08
2022-11-25T17:22:21.752Z,28.10
2022-11-25T17:24:49.805Z,29.80
2022-11-25T17:27:19.899Z,29.90
2022-11-25T17:29:48.264Z,28.63
2022-11-25T17:32:16.411Z,29.42
2022-11-25T17:34:44.100Z,28.00
2022-11-25T17:37:15.478Z,26.52
2022-11-25T17:39:43.471Z,27.38
2022-11-25T17:42:17.747Z,28.05
2022-11-25T17:44:49.802Z,25.00
2022-11-25T17:47:17.230Z,23.08
2022-11-25T17:49:44.855Z,21.65
2022-11-25T17:52:12.175Z,21.02
2022-11-25T17:54:40.333Z,20.23
2022-11-25T18:00:42.898Z,20.55
2022-11-25T18:03:13.149Z,24.83
2022-11-25T18:05:40.877Z,23.83
2022-11-25T18:08:08.311Z,16.95
2022-11-25T18:10:36.066Z,17.30
2022-11-25T18:13:04.957Z,16.95
2022-11-25T18:15:33.039Z,17.55
2022-11-25T18:18:05.464Z,31.17
2022-11-25T18:20:33.544Z,24.40
2022-11-25T18:23:00.957Z,26.00
2022-11-25T18:25:30.354Z,22.65
2022-11-25T18:27:57.906Z,23.48
2022-11-25T18:30:29.630Z,23.35
2022-11-25T18:32:57.245Z,26.70
2022-11-25T18:35:29.817Z,26.02
2022-11-25T18:38:00.149Z,26.17
2022-11-25T18:40:29.125Z,21.77
2022-11-25T18:42:57.793Z,20.85
2022-11-25T18:45:27.545Z,19.40
2022-11-25T18:47:54.944Z,19.73
2022-11-25T18:50:23.647Z,19.60
2022-11-25T18:52:51.455Z,16.65
2022-11-25T18:55:20.744Z,17.60
2022-11-25T18:57:51.718Z,15.73
2022-11-25T19:03:34.068Z,22.40
2022-11-25T19:06:01.799Z,22.45
2022-11-25T19:08:29.289Z,23.60
2022-11-25T19:10:57.063Z,23.70
2022-11-25T19:13:29.691Z,25.30
2022-11-25T19:16:01.665Z,25.42
2022-11-25T19:18:29.045Z,23.70
2022-11-25T19:20:57.284Z,26.20
2022-11-25T19:23:25.529Z,22.90
2022-11-25T19:25:54.061Z,26.73
2022-11-25T19:28:21.677Z,28.58
2022-11-25T19:30:49.837Z,35.45
2022-11-25T19:33:36.579Z,61.78
2022-11-25T19:36:05.062Z,74.05
2022-11-25T19:38:32.607Z,59.40
2022-11-25T19:41:00.388Z,51.83
2022-11-25T19:43:27.772Z,67.57
2022-11-25T19:45:56.053Z,55.88
2022-11-25T19:48:23.568Z,55.88
2022-11-25T19:50:53.386Z,51.95
2022-11-25T19:53:21.964Z,49.60
2022-11-25T19:55:49.540Z,54.70
2022-11-25T20:01:41.553Z,44.15
2022-11-25T20:04:16.506Z,48.80
2022-11-25T20:06:44.274Z,36.90
2022-11-25T20:09:12.017Z,33.33
2022-11-25T20:11:39.737Z,31.50
2022-11-25T20:14:07.073Z,27.88
2022-11-25T20:16:35.582Z,28.80
2022-11-25T20:19:11.926Z,32.38
2022-11-25T20:21:42.678Z,37.05
2022-11-25T20:27:52.083Z,39.20
2022-11-25T20:30:19.785Z,44.17
2022-11-25T20:36:20.712Z,65.45
2022-11-25T20:38:49.828Z,72.68
2022-11-25T20:41:17.678Z,82.95
2022-11-25T20:43:47.604Z,89.22
2022-11-25T20:46:19.974Z,106.30
2022-11-25T20:48:47.673Z,97.25
2022-11-25T20:51:19.641Z,93.55
2022-11-25T20:53:48.874Z,60.85
2022-11-25T20:56:20.132Z,55.95
2022-11-25T20:58:48.198Z,51.30
2022-11-25T21:01:17.020Z,50.58
2022-11-25T21:03:45.279Z,59.30
2022-11-25T21:06:23.224Z,60.47
2022-11-25T21:08:52.303Z,64.60
2022-11-25T21:11:20.301Z,61.33
2022-11-25T21:13:48.351Z,49.83
2022-11-25T21:16:15.858Z,59.53
2022-11-25T21:18:45.863Z,43.92
2022-11-25T21:21:42.674Z,40.63
2022-11-25T21:24:16.751Z,46.03
2022-11-25T21:26:44.598Z,54.70
2022-11-25T21:29:14.435Z,50.35
2022-11-25T21:31:41.911Z,53.20
2022-11-25T21:34:10.883Z,49.03
2022-11-25T21:36:38.700Z,45.90
2022-11-25T21:39:15.884Z,46.55
2022-11-25T21:41:43.248Z,45.42
2022-11-25T21:44:14.062Z,51.47
2022-11-25T21:46:41.451Z,50.33
2022-11-25T21:49:10.915Z,49.08
2022-11-25T21:51:38.311Z,52.00
2022-11-25T21:54:05.920Z,48.25
2022-11-25T21:56:33.903Z,53.70
2022-11-25T21:59:25.625Z,55.03
2022-11-25T22:01:53.119Z,54.72
2022-11-25T22:04:31.274Z,54.53
2022-11-25T22:06:58.664Z,57.47
2022-11-25T22:09:37.953Z,61.97
2022-11-25T22:12:05.678Z,61.42
2022-11-25T22:14:35.640Z,59.88
2022-11-25T22:17:06.921Z,56.35
2022-11-25T22:19:34.552Z,55.95
2022-11-25T22:25:25.220Z,50.38
2022-11-25T22:27:52.840Z,45.58
2022-11-25T22:30:21.730Z,45.97
2022-11-25T22:32:52.660Z,43.47
2022-11-25T22:35:21.894Z,40.80
2022-11-25T22:37:54.973Z,34.00
2022-11-25T22:40:23.717Z,45.33
2022-11-25T22:42:51.977Z,39.67
2022-11-25T22:45:27.757Z,47.80
2022-11-25T22:47:59.294Z,41.35
2022-11-25T22:50:27.965Z,34.28
2022-11-25T22:52:58.078Z,42.47
2022-11-25T22:55:26.664Z,41.08
2022-11-25T22:57:55.724Z,40.42
2022-11-25T23:00:23.014Z,43.25
2022-11-25T23:02:51.629Z,42.53
2022-11-25T23:05:35.187Z,42.97
2022-11-25T23:08:10.147Z,41.85
2022-11-25T23:10:37.784Z,46.80
2022-11-25T23:13:07.646Z,40.00
2022-11-25T23:15:35.292Z,42.25
2022-11-25T23:18:14.538Z,42.85
2022-11-25T23:20:42.098Z,41.15
2022-11-25T23:23:18.407Z,41.10
2022-11-25T23:25:46.591Z,41.03
2022-11-25T23:28:14.559Z,41.22
2022-11-25T23:30:45.830Z,49.92
2022-11-25T23:33:18.648Z,50.50
2022-11-25T23:35:46.143Z,43.47
2022-11-25T23:38:17.332Z,49.20
2022-11-25T23:40:44.783Z,42.63
2022-11-25T23:43:15.787Z,41.75
2022-11-25T23:45:46.964Z,39.83
2022-11-25T23:48:14.874Z,42.63
2022-11-25T23:50:42.465Z,41.38
2022-11-25T23:53:16.881Z,42.17
2022-11-25T23:55:44.351Z,42.17
2022-11-25T23:58:15.895Z,41.28
